sensor_id;sensor_type;location;lat;lon;timestamp;temperature;humidity
11583;DHT22;34299;50.820;4.548;2023-06-04T00:02:05;11.10;99.90
11583;DHT22;34299;50.820;4.548;2023-06-04T00:04:32;11.10;99.90
11583;DHT22;34299;50.820;4.548;2023-06-04T00:06:59;11.10;99.90
11583;DHT22;34299;50.820;4.548;2023-06-04T00:09:26;11.00;99.90
11583;DHT22;34299;50.820;4.548;2023-06-04T00:11:54;10.90;99.90
11583;DHT22;34299;50.820;4.548;2023-06-04T00:14:21;10.80;99.90
11583;DHT22;34299;50.820;4.548;2023-06-04T00:16:49;10.70;99.90
11583;DHT22;34299;50.820;4.548;2023-06-04T00:19:16;10.60;99.90
11583;DHT22;34299;50.820;4.548;2023-06-04T00:21:43;10.50;99.90
11583;DHT22;34299;50.820;4.548;2023-06-04T00:24:10;10.50;99.90
11583;DHT22;34299;50.820;4.548;2023-06-04T00:26:37;10.60;99.90
11583;DHT22;34299;50.820;4.548;2023-06-04T00:29:06;10.60;99.90
11583;DHT22;34299;50.820;4.548;2023-06-04T00:31:33;10.80;99.90
11583;DHT22;34299;50.820;4.548;2023-06-04T00:34:01;10.60;99.90
11583;DHT22;34299;50.820;4.548;2023-06-04T00:36:28;10.60;99.90
11583;DHT22;34299;50.820;4.548;2023-06-04T00:38:55;10.50;99.90
11583;DHT22;34299;50.820;4.548;2023-06-04T00:41:22;10.60;99.90
11583;DHT22;34299;50.820;4.548;2023-06-04T00:43:49;10.50;99.90
11583;DHT22;34299;50.820;4.548;2023-06-04T00:46:23;10.40;99.90
11583;DHT22;34299;50.820;4.548;2023-06-04T00:48:51;10.30;99.90
11583;DHT22;34299;50.820;4.548;2023-06-04T00:51:18;10.20;99.90
11583;DHT22;34299;50.820;4.548;2023-06-04T00:53:46;10.10;99.90
11583;DHT22;34299;50.820;4.548;2023-06-04T00:56:13;10.00;99.90
11583;DHT22;34299;50.820;4.548;2023-06-04T00:58:40;9.90;99.90
11583;DHT22;34299;50.820;4.548;2023-06-04T01:01:14;10.00;99.90
11583;DHT22;34299;50.820;4.548;2023-06-04T01:03:47;10.10;99.90
11583;DHT22;34299;50.820;4.548;2023-06-04T01:06:20;10.20;99.90
11583;DHT22;34299;50.820;4.548;2023-06-04T01:08:49;10.30;99.90
11583;DHT22;34299;50.820;4.548;2023-06-04T01:11:31;10.30;99.90
11583;DHT22;34299;50.820;4.548;2023-06-04T01:13:58;10.40;99.90
11583;DHT22;34299;50.820;4.548;2023-06-04T01:16:26;10.20;99.90
11583;DHT22;34299;50.820;4.548;2023-06-04T01:19:01;10.10;99.90
11583;DHT22;34299;50.820;4.548;2023-06-04T01:21:30;10.00;99.90
11583;DHT22;34299;50.820;4.548;2023-06-04T01:24:01;10.10;99.90
11583;DHT22;34299;50.820;4.548;2023-06-04T01:26:32;9.90;99.90
11583;DHT22;34299;50.820;4.548;2023-06-04T01:29:00;10.10;99.90
11583;DHT22;34299;50.820;4.548;2023-06-04T01:31:28;10.00;99.90
11583;DHT22;34299;50.820;4.548;2023-06-04T01:33:59;9.90;99.90
11583;DHT22;34299;50.820;4.548;2023-06-04T01:36:30;9.90;99.90
11583;DHT22;34299;50.820;4.548;2023-06-04T01:38:58;9.90;99.90
11583;DHT22;34299;50.820;4.548;2023-06-04T01:41:26;9.90;99.90
11583;DHT22;34299;50.820;4.548;2023-06-04T01:43:53;10.00;99.90
11583;DHT22;34299;50.820;4.548;2023-06-04T01:46:20;9.90;99.90
11583;DHT22;34299;50.820;4.548;2023-06-04T01:48:47;9.80;99.90
11583;DHT22;34299;50.820;4.548;2023-06-04T01:51:15;10.00;99.90
11583;DHT22;34299;50.820;4.548;2023-06-04T01:53:42;10.20;99.90
11583;DHT22;34299;50.820;4.548;2023-06-04T01:56:09;10.10;99.90
11583;DHT22;34299;50.820;4.548;2023-06-04T01:58:36;10.20;99.90
11583;DHT22;34299;50.820;4.548;2023-06-04T02:01:03;10.30;99.90
11583;DHT22;34299;50.820;4.548;2023-06-04T02:03:31;10.40;99.90
11583;DHT22;34299;50.820;4.548;2023-06-04T02:06:03;10.50;99.90
11583;DHT22;34299;50.820;4.548;2023-06-04T02:08:31;10.40;99.90
11583;DHT22;34299;50.820;4.548;2023-06-04T02:10:58;10.40;99.90
11583;DHT22;34299;50.820;4.548;2023-06-04T02:13:25;10.40;99.90
11583;DHT22;34299;50.820;4.548;2023-06-04T02:15:52;10.60;99.90
11583;DHT22;34299;50.820;4.548;2023-06-04T02:18:20;10.70;99.90
11583;DHT22;34299;50.820;4.548;2023-06-04T02:20:48;10.40;99.90
11583;DHT22;34299;50.820;4.548;2023-06-04T02:23:17;10.50;99.90
11583;DHT22;34299;50.820;4.548;2023-06-04T02:25:46;10.70;99.90
11583;DHT22;34299;50.820;4.548;2023-06-04T02:28:13;10.80;99.90
11583;DHT22;34299;50.820;4.548;2023-06-04T02:30:41;10.70;99.90
11583;DHT22;34299;50.820;4.548;2023-06-04T02:33:08;10.70;99.90
11583;DHT22;34299;50.820;4.548;2023-06-04T02:35:35;10.60;99.90
11583;DHT22;34299;50.820;4.548;2023-06-04T02:38:02;10.40;99.90
11583;DHT22;34299;50.820;4.548;2023-06-04T02:40:29;10.30;99.90
11583;DHT22;34299;50.820;4.548;2023-06-04T02:42:57;10.50;99.90
11583;DHT22;34299;50.820;4.548;2023-06-04T02:45:24;10.70;99.90
11583;DHT22;34299;50.820;4.548;2023-06-04T02:47:51;10.20;99.90
11583;DHT22;34299;50.820;4.548;2023-06-04T02:50:19;10.00;99.90
11583;DHT22;34299;50.820;4.548;2023-06-04T02:52:46;9.90;99.90
11583;DHT22;34299;50.820;4.548;2023-06-04T02:55:13;9.80;99.90
11583;DHT22;34299;50.820;4.548;2023-06-04T02:57:40;9.60;99.90
11583;DHT22;34299;50.820;4.548;2023-06-04T03:00:11;9.60;99.90
11583;DHT22;34299;50.820;4.548;2023-06-04T03:02:40;9.50;99.90
11583;DHT22;34299;50.820;4.548;2023-06-04T03:05:11;9.50;99.90
11583;DHT22;34299;50.820;4.548;2023-06-04T03:07:40;9.50;99.90
11583;DHT22;34299;50.820;4.548;2023-06-04T03:10:10;9.50;99.90
11583;DHT22;34299;50.820;4.548;2023-06-04T03:12:37;9.40;99.90
11583;DHT22;34299;50.820;4.548;2023-06-04T03:15:05;9.40;99.90
11583;DHT22;34299;50.820;4.548;2023-06-04T03:17:33;9.40;99.90
11583;DHT22;34299;50.820;4.548;2023-06-04T03:20:00;9.20;99.90
11583;DHT22;34299;50.820;4.548;2023-06-04T03:22:29;9.20;99.90
11583;DHT22;34299;50.820;4.548;2023-06-04T03:24:56;9.20;99.90
11583;DHT22;34299;50.820;4.548;2023-06-04T03:27:23;9.20;99.90
11583;DHT22;34299;50.820;4.548;2023-06-04T03:29:51;9.10;99.90
11583;DHT22;34299;50.820;4.548;2023-06-04T03:32:18;9.30;99.90
11583;DHT22;34299;50.820;4.548;2023-06-04T03:34:46;9.60;99.90
11583;DHT22;34299;50.820;4.548;2023-06-04T03:37:13;9.70;99.90
11583;DHT22;34299;50.820;4.548;2023-06-04T03:39:40;9.90;99.90
11583;DHT22;34299;50.820;4.548;2023-06-04T03:42:07;9.90;99.90
11583;DHT22;34299;50.820;4.548;2023-06-04T03:44:34;10.00;99.90
11583;DHT22;34299;50.820;4.548;2023-06-04T03:47:01;9.90;99.90
11583;DHT22;34299;50.820;4.548;2023-06-04T03:49:28;9.90;99.90
11583;DHT22;34299;50.820;4.548;2023-06-04T03:51:56;10.00;99.90
11583;DHT22;34299;50.820;4.548;2023-06-04T03:54:23;10.00;99.90
11583;DHT22;34299;50.820;4.548;2023-06-04T03:56:50;9.90;99.90
11583;DHT22;34299;50.820;4.548;2023-06-04T03:59:17;10.00;99.90
11583;DHT22;34299;50.820;4.548;2023-06-04T04:01:44;9.90;99.90
11583;DHT22;34299;50.820;4.548;2023-06-04T04:04:11;9.90;99.90
11583;DHT22;34299;50.820;4.548;2023-06-04T04:06:38;9.90;99.90
11583;DHT22;34299;50.820;4.548;2023-06-04T04:09:07;9.80;99.90
11583;DHT22;34299;50.820;4.548;2023-06-04T04:11:33;9.60;99.90
11583;DHT22;34299;50.820;4.548;2023-06-04T04:14:00;9.50;99.90
11583;DHT22;34299;50.820;4.548;2023-06-04T04:16:28;9.30;99.90
11583;DHT22;34299;50.820;4.548;2023-06-04T04:18:55;9.30;99.90
11583;DHT22;34299;50.820;4.548;2023-06-04T04:21:22;9.40;99.90
11583;DHT22;34299;50.820;4.548;2023-06-04T04:23:49;9.40;99.90
11583;DHT22;34299;50.820;4.548;2023-06-04T04:26:18;9.50;99.90
11583;DHT22;34299;50.820;4.548;2023-06-04T04:28:45;9.40;99.90
11583;DHT22;34299;50.820;4.548;2023-06-04T04:31:13;9.40;99.90
11583;DHT22;34299;50.820;4.548;2023-06-04T04:33:40;9.40;99.90
11583;DHT22;34299;50.820;4.548;2023-06-04T04:36:07;9.40;99.90
11583;DHT22;34299;50.820;4.548;2023-06-04T04:38:39;9.40;99.90
11583;DHT22;34299;50.820;4.548;2023-06-04T04:41:06;9.50;99.90
11583;DHT22;34299;50.820;4.548;2023-06-04T04:43:36;9.50;99.90
11583;DHT22;34299;50.820;4.548;2023-06-04T04:46:05;9.50;99.90
11583;DHT22;34299;50.820;4.548;2023-06-04T04:48:32;9.60;99.90
11583;DHT22;34299;50.820;4.548;2023-06-04T04:50:59;9.50;99.90
11583;DHT22;34299;50.820;4.548;2023-06-04T04:53:26;9.60;99.90
11583;DHT22;34299;50.820;4.548;2023-06-04T04:55:54;9.60;99.90
11583;DHT22;34299;50.820;4.548;2023-06-04T04:58:21;9.70;99.90
11583;DHT22;34299;50.820;4.548;2023-06-04T05:00:49;9.80;99.90
11583;DHT22;34299;50.820;4.548;2023-06-04T05:03:16;9.70;99.90
11583;DHT22;34299;50.820;4.548;2023-06-04T05:05:43;9.90;99.90
11583;DHT22;34299;50.820;4.548;2023-06-04T05:08:11;10.10;99.90
11583;DHT22;34299;50.820;4.548;2023-06-04T05:10:38;10.30;99.90
11583;DHT22;34299;50.820;4.548;2023-06-04T05:13:05;10.40;99.90
11583;DHT22;34299;50.820;4.548;2023-06-04T05:15:32;10.70;99.90
11583;DHT22;34299;50.820;4.548;2023-06-04T05:18:00;10.70;99.90
11583;DHT22;34299;50.820;4.548;2023-06-04T05:20:29;10.90;99.90
11583;DHT22;34299;50.820;4.548;2023-06-04T05:22:56;11.00;99.90
11583;DHT22;34299;50.820;4.548;2023-06-04T05:25:23;11.10;99.90
11583;DHT22;34299;50.820;4.548;2023-06-04T05:27:50;11.30;99.90
11583;DHT22;34299;50.820;4.548;2023-06-04T05:30:17;11.30;99.90
11583;DHT22;34299;50.820;4.548;2023-06-04T05:32:44;11.40;99.90
11583;DHT22;34299;50.820;4.548;2023-06-04T05:35:12;11.40;99.90
11583;DHT22;34299;50.820;4.548;2023-06-04T05:37:39;11.60;99.90
11583;DHT22;34299;50.820;4.548;2023-06-04T05:40:08;11.70;99.90
11583;DHT22;34299;50.820;4.548;2023-06-04T05:42:36;11.80;99.90
11583;DHT22;34299;50.820;4.548;2023-06-04T05:45:04;11.90;99.90
11583;DHT22;34299;50.820;4.548;2023-06-04T05:47:33;11.90;99.90
11583;DHT22;34299;50.820;4.548;2023-06-04T05:50:00;12.10;99.90
11583;DHT22;34299;50.820;4.548;2023-06-04T05:52:29;12.20;99.90
11583;DHT22;34299;50.820;4.548;2023-06-04T05:54:56;12.20;99.90
11583;DHT22;34299;50.820;4.548;2023-06-04T05:57:26;12.30;99.90
11583;DHT22;34299;50.820;4.548;2023-06-04T05:59:53;12.50;99.90
11583;DHT22;34299;50.820;4.548;2023-06-04T06:02:20;12.60;99.90
11583;DHT22;34299;50.820;4.548;2023-06-04T06:04:50;12.80;99.90
11583;DHT22;34299;50.820;4.548;2023-06-04T06:07:17;12.80;99.90
11583;DHT22;34299;50.820;4.548;2023-06-04T06:09:46;12.80;99.90
11583;DHT22;34299;50.820;4.548;2023-06-04T06:12:13;12.90;99.90
11583;DHT22;34299;50.820;4.548;2023-06-04T06:14:40;12.90;99.90
11583;DHT22;34299;50.820;4.548;2023-06-04T06:17:07;13.20;99.90
11583;DHT22;34299;50.820;4.548;2023-06-04T06:19:36;13.40;99.90
11583;DHT22;34299;50.820;4.548;2023-06-04T06:22:04;13.40;99.90
11583;DHT22;34299;50.820;4.548;2023-06-04T06:24:31;13.50;99.90
11583;DHT22;34299;50.820;4.548;2023-06-04T06:26:59;13.60;99.90
11583;DHT22;34299;50.820;4.548;2023-06-04T06:29:26;13.70;99.90
11583;DHT22;34299;50.820;4.548;2023-06-04T06:31:53;13.80;99.90
11583;DHT22;34299;50.820;4.548;2023-06-04T06:34:20;13.80;99.90
11583;DHT22;34299;50.820;4.548;2023-06-04T06:36:47;13.90;99.90
11583;DHT22;34299;50.820;4.548;2023-06-04T06:39:15;14.10;99.90
11583;DHT22;34299;50.820;4.548;2023-06-04T06:41:42;14.20;99.90
11583;DHT22;34299;50.820;4.548;2023-06-04T12:03:35;29.10;68.40
11583;DHT22;34299;50.820;4.548;2023-06-04T12:06:13;29.20;70.00
11583;DHT22;34299;50.820;4.548;2023-06-04T12:08:46;29.20;71.60
11583;DHT22;34299;50.820;4.548;2023-06-04T12:11:25;29.80;74.10
11583;DHT22;34299;50.820;4.548;2023-06-04T12:13:52;29.70;66.10
11583;DHT22;34299;50.820;4.548;2023-06-04T12:16:20;28.90;67.70
11583;DHT22;34299;50.820;4.548;2023-06-04T12:18:47;29.10;66.40
11583;DHT22;34299;50.820;4.548;2023-06-04T12:21:23;29.00;69.10
11583;DHT22;34299;50.820;4.548;2023-06-04T12:23:53;29.10;67.30
11583;DHT22;34299;50.820;4.548;2023-06-04T12:26:22;28.70;68.20
11583;DHT22;34299;50.820;4.548;2023-06-04T12:29:00;28.80;68.60
11583;DHT22;34299;50.820;4.548;2023-06-04T12:31:27;29.40;68.70
11583;DHT22;34299;50.820;4.548;2023-06-04T12:33:58;30.10;69.00
11583;DHT22;34299;50.820;4.548;2023-06-04T12:36:27;30.10;66.60
11583;DHT22;34299;50.820;4.548;2023-06-04T12:38:58;29.80;67.50
11583;DHT22;34299;50.820;4.548;2023-06-04T12:41:26;30.10;63.20
11583;DHT22;34299;50.820;4.548;2023-06-04T12:43:54;29.60;61.10
11583;DHT22;34299;50.820;4.548;2023-06-04T12:46:21;29.80;61.60
11583;DHT22;34299;50.820;4.548;2023-06-04T12:48:49;30.50;62.10
11583;DHT22;34299;50.820;4.548;2023-06-04T12:51:16;31.00;62.30
11583;DHT22;34299;50.820;4.548;2023-06-04T12:53:44;30.80;59.70
11583;DHT22;34299;50.820;4.548;2023-06-04T12:56:11;30.90;62.10
11583;DHT22;34299;50.820;4.548;2023-06-04T12:58:38;30.90;62.10
11583;DHT22;34299;50.820;4.548;2023-06-04T13:01:05;31.30;63.70
11583;DHT22;34299;50.820;4.548;2023-06-04T13:03:33;31.30;62.40
11583;DHT22;34299;50.820;4.548;2023-06-04T13:06:03;30.80;57.10
11583;DHT22;34299;50.820;4.548;2023-06-04T13:08:29;30.00;58.50
11583;DHT22;34299;50.820;4.548;2023-06-04T13:10:58;30.20;62.20
11583;DHT22;34299;50.820;4.548;2023-06-04T13:13:27;30.80;63.00
11583;DHT22;34299;50.820;4.548;2023-06-04T13:15:54;31.10;62.10
11583;DHT22;34299;50.820;4.548;2023-06-04T13:18:21;31.60;58.90
11583;DHT22;34299;50.820;4.548;2023-06-04T13:20:48;31.70;59.90
11583;DHT22;34299;50.820;4.548;2023-06-04T13:23:15;32.50;59.00
11583;DHT22;34299;50.820;4.548;2023-06-04T13:25:42;32.40;58.70
11583;DHT22;34299;50.820;4.548;2023-06-04T13:28:11;32.60;59.80
11583;DHT22;34299;50.820;4.548;2023-06-04T13:30:38;31.90;56.50
11583;DHT22;34299;50.820;4.548;2023-06-04T13:33:06;31.50;58.70
11583;DHT22;34299;50.820;4.548;2023-06-04T13:35:33;32.10;58.90
11583;DHT22;34299;50.820;4.548;2023-06-04T13:38:00;32.20;58.40
11583;DHT22;34299;50.820;4.548;2023-06-04T13:40:27;31.90;58.40
11583;DHT22;34299;50.820;4.548;2023-06-04T13:42:54;31.60;59.70
11583;DHT22;34299;50.820;4.548;2023-06-04T13:45:22;31.40;59.50
11583;DHT22;34299;50.820;4.548;2023-06-04T13:47:49;32.20;59.20
11583;DHT22;34299;50.820;4.548;2023-06-04T13:50:16;32.50;58.10
11583;DHT22;34299;50.820;4.548;2023-06-04T13:52:44;32.90;56.60
11583;DHT22;34299;50.820;4.548;2023-06-04T13:55:12;33.20;56.60
11583;DHT22;34299;50.820;4.548;2023-06-04T13:57:39;33.50;55.20
11583;DHT22;34299;50.820;4.548;2023-06-04T14:00:07;33.20;52.50
11583;DHT22;34299;50.820;4.548;2023-06-04T14:02:36;32.50;53.20
11583;DHT22;34299;50.820;4.548;2023-06-04T14:05:05;32.20;53.20
11583;DHT22;34299;50.820;4.548;2023-06-04T14:07:32;32.40;56.10
11583;DHT22;34299;50.820;4.548;2023-06-04T14:09:59;32.60;53.60
11583;DHT22;34299;50.820;4.548;2023-06-04T14:12:26;32.90;56.50
11583;DHT22;34299;50.820;4.548;2023-06-04T14:14:53;32.90;53.70
11583;DHT22;34299;50.820;4.548;2023-06-04T14:17:20;32.50;55.20
11583;DHT22;34299;50.820;4.548;2023-06-04T14:19:48;32.80;55.50
11583;DHT22;34299;50.820;4.548;2023-06-04T14:22:15;32.80;50.80
11583;DHT22;34299;50.820;4.548;2023-06-04T14:24:42;32.80;54.10
11583;DHT22;34299;50.820;4.548;2023-06-04T14:27:09;32.70;50.50
11583;DHT22;34299;50.820;4.548;2023-06-04T14:29:36;32.50;53.20
11583;DHT22;34299;50.820;4.548;2023-06-04T14:32:04;32.60;53.20
11583;DHT22;34299;50.820;4.548;2023-06-04T14:34:31;33.30;53.60
11583;DHT22;34299;50.820;4.548;2023-06-04T14:37:00;33.90;53.30
11583;DHT22;34299;50.820;4.548;2023-06-04T14:39:27;34.20;52.90
11583;DHT22;34299;50.820;4.548;2023-06-04T14:41:54;32.50;49.30
11583;DHT22;34299;50.820;4.548;2023-06-04T14:44:21;32.10;52.40
11583;DHT22;34299;50.820;4.548;2023-06-04T14:46:50;32.90;53.70
11583;DHT22;34299;50.820;4.548;2023-06-04T14:49:18;33.70;52.30
11583;DHT22;34299;50.820;4.548;2023-06-04T14:51:45;34.30;50.60
11583;DHT22;34299;50.820;4.548;2023-06-04T14:54:14;34.80;49.60
11583;DHT22;34299;50.820;4.548;2023-06-04T14:56:41;34.60;47.60
11583;DHT22;34299;50.820;4.548;2023-06-04T14:59:09;33.10;47.50
11583;DHT22;34299;50.820;4.548;2023-06-04T15:01:38;31.50;50.60
11583;DHT22;34299;50.820;4.548;2023-06-04T15:04:06;32.70;51.70
11583;DHT22;34299;50.820;4.548;2023-06-04T15:06:34;33.20;47.80
11583;DHT22;34299;50.820;4.548;2023-06-04T15:09:01;32.90;50.50
11583;DHT22;34299;50.820;4.548;2023-06-04T15:11:30;33.70;51.20
11583;DHT22;34299;50.820;4.548;2023-06-04T15:13:57;34.50;47.40
11583;DHT22;34299;50.820;4.548;2023-06-04T15:16:24;35.10;47.90
11583;DHT22;34299;50.820;4.548;2023-06-04T15:18:51;34.90;49.10
11583;DHT22;34299;50.820;4.548;2023-06-04T15:21:18;34.80;47.30
11583;DHT22;34299;50.820;4.548;2023-06-04T15:23:45;35.00;47.80
11583;DHT22;34299;50.820;4.548;2023-06-04T15:26:16;35.10;45.00
11583;DHT22;34299;50.820;4.548;2023-06-04T15:28:44;35.60;46.60
11583;DHT22;34299;50.820;4.548;2023-06-04T15:31:12;35.70;46.50
11583;DHT22;34299;50.820;4.548;2023-06-04T15:33:39;35.90;45.60
11583;DHT22;34299;50.820;4.548;2023-06-04T15:36:06;35.70;45.30
11583;DHT22;34299;50.820;4.548;2023-06-04T15:38:33;35.90;45.20
11583;DHT22;34299;50.820;4.548;2023-06-04T15:41:00;36.50;44.60
11583;DHT22;34299;50.820;4.548;2023-06-04T15:43:27;36.40;43.20
11583;DHT22;34299;50.820;4.548;2023-06-04T15:45:55;34.90;41.10
11583;DHT22;34299;50.820;4.548;2023-06-04T15:48:22;34.90;41.70
11583;DHT22;34299;50.820;4.548;2023-06-04T15:50:51;34.40;40.80
11583;DHT22;34299;50.820;4.548;2023-06-04T15:53:18;35.00;43.40
11583;DHT22;34299;50.820;4.548;2023-06-04T15:55:46;36.20;42.20
11583;DHT22;34299;50.820;4.548;2023-06-04T15:58:12;37.70;40.40
11583;DHT22;34299;50.820;4.548;2023-06-04T16:00:39;38.80;40.30
11583;DHT22;34299;50.820;4.548;2023-06-04T16:03:08;38.80;39.70
11583;DHT22;34299;50.820;4.548;2023-06-04T16:05:35;38.90;40.10
11583;DHT22;34299;50.820;4.548;2023-06-04T16:08:02;38.90;39.80
11583;DHT22;34299;50.820;4.548;2023-06-04T16:10:29;39.80;39.60
11583;DHT22;34299;50.820;4.548;2023-06-04T16:12:56;39.70;39.90
11583;DHT22;34299;50.820;4.548;2023-06-04T16:15:23;39.50;39.80
11583;DHT22;34299;50.820;4.548;2023-06-04T16:17:50;40.00;38.60
11583;DHT22;34299;50.820;4.548;2023-06-04T16:20:18;41.00;37.90
11583;DHT22;34299;50.820;4.548;2023-06-04T16:22:45;40.40;37.60
11583;DHT22;34299;50.820;4.548;2023-06-04T16:25:12;39.20;37.30
11583;DHT22;34299;50.820;4.548;2023-06-04T16:27:43;36.60;37.40
11583;DHT22;34299;50.820;4.548;2023-06-04T16:30:11;37.20;39.20
11583;DHT22;34299;50.820;4.548;2023-06-04T16:32:39;36.40;39.70
11583;DHT22;34299;50.820;4.548;2023-06-04T16:35:07;36.90;39.80
11583;DHT22;34299;50.820;4.548;2023-06-04T16:37:36;36.70;38.70
11583;DHT22;34299;50.820;4.548;2023-06-04T16:40:04;36.90;39.90
11583;DHT22;34299;50.820;4.548;2023-06-04T16:42:33;37.20;39.50
11583;DHT22;34299;50.820;4.548;2023-06-04T16:45:00;38.40;39.20
11583;DHT22;34299;50.820;4.548;2023-06-04T16:47:27;38.00;39.30
11583;DHT22;34299;50.820;4.548;2023-06-04T16:49:54;37.20;40.50
11583;DHT22;34299;50.820;4.548;2023-06-04T16:52:21;36.30;40.10
11583;DHT22;34299;50.820;4.548;2023-06-04T16:54:49;36.10;40.10
11583;DHT22;34299;50.820;4.548;2023-06-04T16:57:16;36.60;40.90
11583;DHT22;34299;50.820;4.548;2023-06-04T16:59:47;37.20;39.70
11583;DHT22;34299;50.820;4.548;2023-06-04T17:02:14;37.50;39.10
11583;DHT22;34299;50.820;4.548;2023-06-04T17:04:42;37.50;39.50
11583;DHT22;34299;50.820;4.548;2023-06-04T17:07:10;36.60;39.60
11583;DHT22;34299;50.820;4.548;2023-06-04T17:09:37;36.40;40.30
11583;DHT22;34299;50.820;4.548;2023-06-04T17:12:06;35.60;39.00
11583;DHT22;34299;50.820;4.548;2023-06-04T17:14:33;33.80;39.80
11583;DHT22;34299;50.820;4.548;2023-06-04T17:17:01;34.00;40.70
11583;DHT22;34299;50.820;4.548;2023-06-04T17:19:30;33.20;41.20
11583;DHT22;34299;50.820;4.548;2023-06-04T17:21:58;33.50;43.10
11583;DHT22;34299;50.820;4.548;2023-06-04T17:24:25;33.10;43.10
11583;DHT22;34299;50.820;4.548;2023-06-04T17:26:52;33.10;43.20
11583;DHT22;34299;50.820;4.548;2023-06-04T17:29:21;32.80;42.80
11583;DHT22;34299;50.820;4.548;2023-06-04T17:31:48;33.00;44.30
11583;DHT22;34299;50.820;4.548;2023-06-04T17:34:15;33.60;44.90
11583;DHT22;34299;50.820;4.548;2023-06-04T17:36:42;33.40;43.60
11583;DHT22;34299;50.820;4.548;2023-06-04T17:39:09;32.30;44.30
11583;DHT22;34299;50.820;4.548;2023-06-04T17:41:36;32.40;45.00
11583;DHT22;34299;50.820;4.548;2023-06-04T17:44:03;31.30;45.20
11583;DHT22;34299;50.820;4.548;2023-06-04T17:46:32;30.60;46.60
11583;DHT22;34299;50.820;4.548;2023-06-04T17:48:59;30.80;46.70
11583;DHT22;34299;50.820;4.548;2023-06-04T17:51:28;29.90;47.50
11583;DHT22;34299;50.820;4.548;2023-06-04T17:53:55;29.40;47.90
11583;DHT22;34299;50.820;4.548;2023-06-04T17:56:22;29.30;48.70
11583;DHT22;34299;50.820;4.548;2023-06-04T17:58:49;29.40;48.50
11583;DHT22;34299;50.820;4.548;2023-06-04T18:01:16;29.90;48.70
11583;DHT22;34299;50.820;4.548;2023-06-04T18:03:44;30.70;47.70
11583;DHT22;34299;50.820;4.548;2023-06-04T18:06:15;30.00;47.20
11583;DHT22;34299;50.820;4.548;2023-06-04T18:08:42;29.50;48.20
11583;DHT22;34299;50.820;4.548;2023-06-04T18:11:09;29.20;48.70
11583;DHT22;34299;50.820;4.548;2023-06-04T18:13:36;29.20;49.20
11583;DHT22;34299;50.820;4.548;2023-06-04T18:16:03;28.70;49.30
11583;DHT22;34299;50.820;4.548;2023-06-04T18:18:30;28.50;49.80
11583;DHT22;34299;50.820;4.548;2023-06-04T18:20:58;28.20;50.00
11583;DHT22;34299;50.820;4.548;2023-06-04T18:23:25;27.80;50.70
11583;DHT22;34299;50.820;4.548;2023-06-04T18:25:52;27.40;51.00
11583;DHT22;34299;50.820;4.548;2023-06-04T18:28:19;27.20;51.90
11583;DHT22;34299;50.820;4.548;2023-06-04T18:30:46;27.50;51.40
11583;DHT22;34299;50.820;4.548;2023-06-04T18:33:14;27.20;51.70
11583;DHT22;34299;50.820;4.548;2023-06-04T18:35:41;26.50;52.40
11583;DHT22;34299;50.820;4.548;2023-06-04T18:38:09;25.90;53.60
11583;DHT22;34299;50.820;4.548;2023-06-04T18:40:36;25.40;54.90
11583;DHT22;34299;50.820;4.548;2023-06-04T18:43:03;25.20;55.80
11583;DHT22;34299;50.820;4.548;2023-06-04T18:45:30;25.10;56.40
11583;DHT22;34299;50.820;4.548;2023-06-04T18:47:57;25.30;56.70
11583;DHT22;34299;50.820;4.548;2023-06-04T18:50:24;25.50;57.00
11583;DHT22;34299;50.820;4.548;2023-06-04T18:52:51;25.30;56.70
11583;DHT22;34299;50.820;4.548;2023-06-04T18:55:20;24.90;57.50
11583;DHT22;34299;50.820;4.548;2023-06-04T18:57:47;24.50;59.00
11583;DHT22;34299;50.820;4.548;2023-06-04T19:00:15;24.50;59.20
11583;DHT22;34299;50.820;4.548;2023-06-04T19:02:42;24.50;60.30
11583;DHT22;34299;50.820;4.548;2023-06-04T19:05:10;24.40;60.00
11583;DHT22;34299;50.820;4.548;2023-06-04T19:07:38;24.30;61.00
11583;DHT22;34299;50.820;4.548;2023-06-04T19:10:07;24.20;61.10
11583;DHT22;34299;50.820;4.548;2023-06-04T19:12:36;24.00;61.70
11583;DHT22;34299;50.820;4.548;2023-06-04T19:15:04;23.90;62.20
11583;DHT22;34299;50.820;4.548;2023-06-04T19:17:45;23.80;62.30
11583;DHT22;34299;50.820;4.548;2023-06-04T19:20:14;23.40;63.30
11583;DHT22;34299;50.820;4.548;2023-06-04T19:22:47;23.20;65.00
11583;DHT22;34299;50.820;4.548;2023-06-04T19:25:15;22.80;65.70
11583;DHT22;34299;50.820;4.548;2023-06-04T19:27:55;22.80;66.40
11583;DHT22;34299;50.820;4.548;2023-06-04T19:30:24;22.60;68.90
11583;DHT22;34299;50.820;4.548;2023-06-04T19:32:52;22.30;69.60
11583;DHT22;34299;50.820;4.548;2023-06-04T19:35:19;22.30;71.20
11583;DHT22;34299;50.820;4.548;2023-06-04T19:37:50;22.30;71.80
11583;DHT22;34299;50.820;4.548;2023-06-04T19:40:18;22.30;72.70
11583;DHT22;34299;50.820;4.548;2023-06-04T19:42:45;22.20;73.70
11583;DHT22;34299;50.820;4.548;2023-06-04T19:45:14;21.90;74.60
11583;DHT22;34299;50.820;4.548;2023-06-04T19:47:41;21.70;76.10
11583;DHT22;34299;50.820;4.548;2023-06-04T19:50:10;21.50;76.40
11583;DHT22;34299;50.820;4.548;2023-06-04T19:52:37;21.30;79.00
11583;DHT22;34299;50.820;4.548;2023-06-04T19:55:05;20.90;83.20
11583;DHT22;34299;50.820;4.548;2023-06-04T19:57:34;20.70;90.20
11583;DHT22;34299;50.820;4.548;2023-06-04T20:00:03;20.50;94.30
11583;DHT22;34299;50.820;4.548;2023-06-04T20:02:35;20.30;97.30
11583;DHT22;34299;50.820;4.548;2023-06-04T20:05:03;20.00;99.90
11583;DHT22;34299;50.820;4.548;2023-06-04T20:07:31;20.10;99.90
11583;DHT22;34299;50.820;4.548;2023-06-04T20:10:01;20.00;99.90
11583;DHT22;34299;50.820;4.548;2023-06-04T20:12:30;19.90;99.90
11583;DHT22;34299;50.820;4.548;2023-06-04T20:14:58;19.80;99.90
11583;DHT22;34299;50.820;4.548;2023-06-04T20:17:25;19.60;99.90
11583;DHT22;34299;50.820;4.548;2023-06-04T20:19:54;19.60;99.90
11583;DHT22;34299;50.820;4.548;2023-06-04T20:22:23;19.60;99.90
11583;DHT22;34299;50.820;4.548;2023-06-04T20:24:51;19.40;99.90
11583;DHT22;34299;50.820;4.548;2023-06-04T20:27:37;19.20;99.90
11583;DHT22;34299;50.820;4.548;2023-06-04T20:30:06;19.10;99.90
11583;DHT22;34299;50.820;4.548;2023-06-04T20:32:33;19.10;99.90
11583;DHT22;34299;50.820;4.548;2023-06-04T20:35:04;19.00;99.90
11583;DHT22;34299;50.820;4.548;2023-06-04T20:37:32;19.10;99.90
11583;DHT22;34299;50.820;4.548;2023-06-04T20:40:01;19.10;99.90
11583;DHT22;34299;50.820;4.548;2023-06-04T20:42:30;19.10;99.90
11583;DHT22;34299;50.820;4.548;2023-06-04T20:44:58;19.00;99.90
11583;DHT22;34299;50.820;4.548;2023-06-04T20:47:26;19.00;99.90
11583;DHT22;34299;50.820;4.548;2023-06-04T20:49:53;19.00;99.90
11583;DHT22;34299;50.820;4.548;2023-06-04T20:52:27;18.90;99.90
11583;DHT22;34299;50.820;4.548;2023-06-04T20:55:01;18.80;99.90
11583;DHT22;34299;50.820;4.548;2023-06-04T20:57:31;18.80;99.90